createdAt,value
2022-11-29T00:00:49.987Z,101435.09
2022-11-29T00:03:16.427Z,101447.34
2022-11-29T00:05:42.808Z,101442.13
2022-11-29T00:08:09.077Z,101442.94
2022-11-29T00:10:38.385Z,101439.44
2022-11-29T00:13:04.692Z,101442.16
2022-11-29T00:15:31.043Z,101443.00
2022-11-29T00:17:57.306Z,101443.00
2022-11-29T00:20:23.577Z,101441.34
2022-11-29T00:22:49.886Z,101448.16
2022-11-29T00:25:16.264Z,101445.53
2022-11-29T00:27:42.511Z,101450.84
2022-11-29T00:30:09.016Z,101455.22
2022-11-29T00:32:35.459Z,101452.59
2022-11-29T00:35:06.634Z,101450.84
2022-11-29T00:37:35.802Z,101451.59
2022-11-29T00:40:02.195Z,101450.75
2022-11-29T00:42:28.431Z,101452.59
2022-11-29T00:44:54.730Z,101454.41
2022-11-29T00:47:20.963Z,101446.50
2022-11-29T00:49:47.299Z,101450.00
2022-11-29T00:52:13.540Z,101443.97
2022-11-29T00:54:39.784Z,101436.97
2022-11-29T00:57:06.028Z,101453.56
2022-11-29T00:59:32.296Z,101455.34
2022-11-29T01:01:58.749Z,101455.41
2022-11-29T01:04:25.209Z,101450.00
2022-11-29T01:06:51.995Z,101451.78
2022-11-29T01:09:18.891Z,101451.84
2022-11-29T01:11:45.262Z,101450.97
2022-11-29T01:14:11.913Z,101457.13
2022-11-29T01:16:38.409Z,101454.56
2022-11-29T01:19:04.937Z,101457.94
2022-11-29T01:21:31.295Z,101459.69
2022-11-29T01:23:57.594Z,101459.69
2022-11-29T01:26:25.308Z,101468.41
2022-11-29T01:28:52.357Z,101457.94
2022-11-29T01:31:20.410Z,101462.25
2022-11-29T01:33:46.683Z,101455.22
2022-11-29T01:36:14.067Z,101451.72
2022-11-29T01:38:42.299Z,101460.41
2022-11-29T01:41:10.922Z,101454.28
2022-11-29T01:43:55.886Z,101459.56
2022-11-29T01:46:22.285Z,101452.44
2022-11-29T01:48:49.081Z,101451.47
2022-11-29T01:51:15.414Z,101461.06
2022-11-29T01:53:41.670Z,101453.28
2022-11-29T01:56:08.086Z,101453.16
2022-11-29T01:58:34.975Z,101443.59
2022-11-29T02:01:01.736Z,101450.47
2022-11-29T02:03:28.084Z,101449.66
2022-11-29T02:05:54.861Z,101449.53
2022-11-29T02:08:27.363Z,101444.25
2022-11-29T02:11:12.435Z,101452.97
2022-11-29T02:13:56.602Z,101451.13
2022-11-29T02:16:35.170Z,101451.00
2022-11-29T02:19:14.510Z,101449.28
2022-11-29T02:21:46.657Z,101450.13
2022-11-29T02:24:22.273Z,101463.25
2022-11-29T02:26:54.602Z,101457.97
2022-11-29T02:29:39.589Z,101463.19
2022-11-29T02:32:24.801Z,101464.13
2022-11-29T02:34:53.791Z,101459.69
2022-11-29T02:37:26.265Z,101457.00
2022-11-29T02:39:52.760Z,101458.81
2022-11-29T02:42:24.782Z,101461.34
2022-11-29T02:44:54.194Z,101456.22
2022-11-29T02:47:36.846Z,101460.59
2022-11-29T02:50:03.071Z,101464.97
2022-11-29T02:52:34.776Z,101457.19
2022-11-29T02:55:06.791Z,101462.50
2022-11-29T02:57:45.336Z,101463.34
2022-11-29T03:00:21.673Z,101477.38
2022-11-29T03:02:50.970Z,101476.53
2022-11-29T03:05:29.466Z,101480.06
2022-11-29T03:08:04.638Z,101485.34
2022-11-29T03:10:38.729Z,101489.75
2022-11-29T03:13:10.216Z,101490.59
2022-11-29T03:15:44.735Z,101488.91
2022-11-29T03:18:31.186Z,101486.22
2022-11-29T03:21:17.580Z,101501.97
2022-11-29T03:24:04.098Z,101497.50
2022-11-29T03:26:35.456Z,101494.00
2022-11-29T03:29:06.958Z,101498.41
2022-11-29T03:31:36.057Z,101498.41
2022-11-29T03:34:11.915Z,101501.03
2022-11-29T03:36:54.638Z,101500.31
2022-11-29T03:39:24.717Z,101502.81
2022-11-29T03:42:01.068Z,101507.97
2022-11-29T03:44:28.424Z,101506.19
2022-11-29T03:46:54.671Z,101502.75
2022-11-29T03:49:30.895Z,101500.91
2022-11-29T03:52:04.276Z,101501.91
2022-11-29T03:54:43.464Z,101505.28
2022-11-29T03:57:10.842Z,101506.13
2022-11-29T03:59:47.013Z,101503.50
2022-11-29T04:02:32.030Z,101502.59
2022-11-29T04:05:10.363Z,101510.38
2022-11-29T04:07:46.184Z,101508.53
2022-11-29T04:10:30.955Z,101524.28
2022-11-29T04:12:57.567Z,101520.91
2022-11-29T04:15:26.905Z,101522.66
2022-11-29T04:18:12.049Z,101515.59
2022-11-29T04:20:48.499Z,101519.06
2022-11-29T04:23:38.716Z,101512.94
2022-11-29T04:26:23.654Z,101521.66
2022-11-29T04:29:08.430Z,101532.13
2022-11-29T04:31:37.794Z,101535.63
2022-11-29T04:34:07.036Z,101529.44
2022-11-29T04:36:42.385Z,101534.59
2022-11-29T04:39:13.805Z,101540.78
2022-11-29T04:41:56.964Z,101546.03
2022-11-29T04:44:31.331Z,101546.97
2022-11-29T04:47:13.192Z,101544.34
2022-11-29T04:49:45.510Z,101546.09
2022-11-29T04:52:11.792Z,101553.09
2022-11-29T04:54:49.882Z,101561.75
2022-11-29T04:57:16.086Z,101554.72
2022-11-29T04:59:49.411Z,101560.03
2022-11-29T05:02:24.350Z,101562.53
2022-11-29T05:04:53.642Z,101561.63
2022-11-29T05:07:38.457Z,101572.16
2022-11-29T05:10:28.591Z,101573.03
2022-11-29T05:12:57.578Z,101572.91
2022-11-29T05:15:35.183Z,101578.22
2022-11-29T05:18:26.312Z,101575.53
2022-11-29T05:21:01.383Z,101583.44
2022-11-29T05:23:46.479Z,101580.00
2022-11-29T05:26:17.705Z,101581.75
2022-11-29T05:28:48.535Z,101581.69
2022-11-29T05:31:23.639Z,101577.44
2022-11-29T05:34:08.500Z,101583.47
2022-11-29T05:36:49.211Z,101584.44
2022-11-29T05:39:15.441Z,101593.13
2022-11-29T05:42:04.963Z,101593.06
2022-11-29T05:44:50.925Z,101598.41
2022-11-29T05:47:31.745Z,101594.13
2022-11-29T05:49:58.020Z,101597.50
2022-11-29T05:52:24.936Z,101604.50
2022-11-29T05:55:03.562Z,101618.47
2022-11-29T05:57:46.890Z,101609.72
2022-11-29T06:00:14.695Z,101613.19
2022-11-29T06:02:48.812Z,101622.03
2022-11-29T06:05:22.840Z,101613.38
2022-11-29T06:08:07.985Z,101617.63
2022-11-29T06:10:36.885Z,101622.78
2022-11-29T06:13:03.298Z,101621.03
2022-11-29T06:15:52.952Z,101625.34
2022-11-29T06:18:38.504Z,101626.31
2022-11-29T06:21:17.415Z,101630.63
2022-11-29T06:23:51.924Z,101631.47
2022-11-29T06:26:30.237Z,101630.63
2022-11-29T06:29:15.361Z,101632.38
2022-11-29T06:31:44.411Z,101627.78
2022-11-29T06:34:13.801Z,101626.88
2022-11-29T06:36:59.964Z,101634.66
2022-11-29T06:39:26.320Z,101637.25
2022-11-29T06:41:52.591Z,101642.47
2022-11-29T06:44:18.932Z,101647.63
2022-11-29T06:46:46.729Z,101651.22
2022-11-29T06:49:16.946Z,101653.06
2022-11-29T06:51:58.391Z,101658.44
2022-11-29T06:54:30.702Z,101663.72
2022-11-29T06:57:15.947Z,101661.22
2022-11-29T06:59:54.719Z,101667.34
2022-11-29T07:02:39.566Z,101671.66
2022-11-29T07:05:13.694Z,101668.28
2022-11-29T07:07:41.280Z,101676.34
2022-11-29T07:10:15.073Z,101685.94
2022-11-29T07:12:41.566Z,101683.47
2022-11-29T07:15:09.674Z,101688.63
2022-11-29T07:17:39.980Z,101685.09
2022-11-29T07:20:15.161Z,101692.00
2022-11-29T07:22:49.317Z,101689.47
2022-11-29T07:25:34.246Z,101692.00
2022-11-29T07:28:03.522Z,101702.53
2022-11-29T07:30:38.064Z,101710.50
2022-11-29T07:33:07.153Z,101708.66
2022-11-29T07:35:48.707Z,101711.28
2022-11-29T07:38:38.313Z,101707.84
2022-11-29T07:41:17.448Z,101711.38
2022-11-29T07:43:51.857Z,101698.31
2022-11-29T07:46:18.162Z,101709.84
2022-11-29T07:48:44.444Z,101706.38
2022-11-29T07:51:10.962Z,101708.97
2022-11-29T07:53:40.691Z,101708.22
2022-11-29T07:56:07.020Z,101713.81
2022-11-29T07:58:33.331Z,101714.72
2022-11-29T08:00:59.677Z,101720.72
2022-11-29T08:03:25.955Z,101719.94
2022-11-29T08:05:52.240Z,101732.19
2022-11-29T08:08:18.499Z,101723.41
2022-11-29T08:10:44.783Z,101730.41
2022-11-29T08:13:11.089Z,101730.72
2022-11-29T08:15:37.387Z,101733.19
2022-11-29T08:18:03.711Z,101733.97
2022-11-29T08:20:29.949Z,101733.03
2022-11-29T08:22:57.161Z,101737.47
2022-11-29T08:25:23.924Z,101731.28
2022-11-29T08:27:51.589Z,101727.72
2022-11-29T08:30:24.036Z,101732.19
2022-11-29T08:32:51.769Z,101729.56
2022-11-29T08:35:18.974Z,101733.97
2022-11-29T08:37:45.198Z,101735.56
2022-11-29T08:40:11.714Z,101733.72
2022-11-29T08:42:37.963Z,101738.31
2022-11-29T08:45:04.664Z,101744.56
2022-11-29T08:47:36.792Z,101739.31
2022-11-29T08:50:14.514Z,101738.63
2022-11-29T08:53:01.348Z,101739.41
2022-11-29T08:55:28.906Z,101740.41
2022-11-29T08:58:00.208Z,101740.41
2022-11-29T09:00:26.596Z,101740.34
2022-11-29T09:02:52.861Z,101739.63
2022-11-29T09:05:19.247Z,101745.84
2022-11-29T09:07:46.810Z,101749.28
2022-11-29T09:10:13.164Z,101750.38
2022-11-29T09:12:39.911Z,101754.13
2022-11-29T09:15:07.619Z,101752.56
2022-11-29T09:17:33.885Z,101756.09
2022-11-29T09:20:00.167Z,101756.41
2022-11-29T09:22:26.424Z,101762.53
2022-11-29T09:24:52.708Z,101760.72
2022-11-29T09:27:18.981Z,101766.66
2022-11-29T09:29:45.349Z,101757.16
2022-11-29T09:32:11.605Z,101763.31
2022-11-29T09:34:37.871Z,101772.16
2022-11-29T09:37:05.068Z,101770.31
2022-11-29T09:39:31.482Z,101773.78
2022-11-29T09:42:03.739Z,101776.41
2022-11-29T09:44:38.226Z,101773.00
2022-11-29T09:47:17.576Z,101781.72
2022-11-29T09:50:11.285Z,101775.78
2022-11-29T09:52:37.574Z,101776.69
2022-11-29T09:55:19.260Z,101782.00
2022-11-29T09:57:46.176Z,101779.66
2022-11-29T10:00:16.018Z,101783.97
2022-11-29T10:02:47.450Z,101784.13
2022-11-29T10:05:39.936Z,101786.94
2022-11-29T10:08:08.609Z,101794.94
2022-11-29T10:10:43.124Z,101788.72
2022-11-29T10:13:15.837Z,101787.13
2022-11-29T10:15:44.137Z,101787.38
2022-11-29T10:18:23.194Z,101785.53
2022-11-29T10:20:50.518Z,101795.34
2022-11-29T10:23:27.591Z,101795.53
2022-11-29T10:25:55.629Z,101792.19
2022-11-29T10:28:23.746Z,101794.53
2022-11-29T10:30:51.160Z,101790.06
2022-11-29T10:33:22.033Z,101802.25
2022-11-29T10:35:50.767Z,101798.69
2022-11-29T10:38:32.534Z,101802.44
2022-11-29T10:41:04.061Z,101806.06
2022-11-29T10:43:30.367Z,101801.94
2022-11-29T10:45:58.629Z,101803.03
2022-11-29T10:48:27.153Z,101808.22
2022-11-29T10:50:53.501Z,101802.38
2022-11-29T10:53:22.529Z,101802.50
2022-11-29T10:55:50.824Z,101806.06
2022-11-29T10:58:27.923Z,101812.97
2022-11-29T11:01:06.809Z,101806.13
2022-11-29T11:03:43.311Z,101805.00
2022-11-29T11:06:17.595Z,101804.28
2022-11-29T11:08:51.589Z,101804.06
2022-11-29T11:11:25.645Z,101806.06
2022-11-29T11:13:58.698Z,101806.19
2022-11-29T11:16:26.513Z,101803.56
2022-11-29T11:18:53.144Z,101805.97
2022-11-29T11:21:20.984Z,101799.69
2022-11-29T11:23:55.273Z,101795.63
2022-11-29T11:26:22.333Z,101809.63
2022-11-29T11:28:58.262Z,101808.94
2022-11-29T11:31:35.641Z,101807.97
2022-11-29T11:34:23.569Z,101803.88
2022-11-29T11:36:49.811Z,101805.66
2022-11-29T11:39:19.727Z,101812.47
2022-11-29T11:42:05.194Z,101805.25
2022-11-29T11:44:49.758Z,101806.13
2022-11-29T11:47:19.211Z,101809.84
2022-11-29T11:49:50.251Z,101809.00
2022-11-29T11:52:20.159Z,101806.38
2022-11-29T11:54:51.004Z,101807.38
2022-11-29T11:57:18.647Z,101808.16
2022-11-29T11:59:48.769Z,101809.94
2022-11-29T12:02:25.544Z,101808.78
2022-11-29T12:04:53.993Z,101814.88
2022-11-29T12:07:44.926Z,101808.66
2022-11-29T12:10:22.442Z,101812.38
2022-11-29T12:12:49.177Z,101812.38
2022-11-29T12:15:20.025Z,101813.31
2022-11-29T12:17:55.955Z,101807.97
2022-11-29T12:20:24.911Z,101809.63
2022-11-29T12:22:53.871Z,101811.34
2022-11-29T12:25:23.575Z,101820.19
2022-11-29T12:27:50.286Z,101818.28
2022-11-29T12:30:17.706Z,101824.22
2022-11-29T12:32:46.681Z,101828.56
2022-11-29T12:35:35.008Z,101833.78
2022-11-29T12:38:20.295Z,101832.78
2022-11-29T12:40:53.763Z,101841.16
2022-11-29T12:43:26.112Z,101841.06
2022-11-29T12:46:11.612Z,101845.44
2022-11-29T12:48:49.705Z,101842.63
2022-11-29T12:51:34.733Z,101846.88
2022-11-29T12:54:19.323Z,101854.78
2022-11-29T12:57:05.882Z,101851.19
2022-11-29T12:59:45.348Z,101857.28
2022-11-29T13:02:29.948Z,101856.44
2022-11-29T13:05:14.641Z,101859.75
2022-11-29T13:08:01.320Z,101851.91
2022-11-29T13:10:35.822Z,101857.91
2022-11-29T13:13:11.593Z,101855.84
2022-11-29T13:16:07.051Z,101850.75
2022-11-29T13:18:42.133Z,101857.91
2022-11-29T13:21:16.294Z,101850.06
2022-11-29T13:26:35.659Z,101850.81
2022-11-29T13:29:03.248Z,101857.91
2022-11-29T13:31:29.953Z,101856.69
2022-11-29T13:33:56.231Z,101858.44
2022-11-29T13:36:43.317Z,101868.94
2022-11-29T13:39:31.895Z,101854.09
2022-11-29T13:41:58.134Z,101854.91
2022-11-29T13:44:33.790Z,101861.69
2022-11-29T13:47:13.506Z,101870.25
2022-11-29T13:49:58.602Z,101869.47
2022-11-29T13:52:34.784Z,101866.94
2022-11-29T13:55:06.957Z,101867.56
2022-11-29T14:00:44.710Z,101869.84
2022-11-29T14:03:23.328Z,101877.72
2022-11-29T14:05:49.802Z,101876.88
2022-11-29T14:08:25.669Z,101879.41
2022-11-29T14:10:53.938Z,101870.66
2022-11-29T14:13:22.679Z,101876.03
2022-11-29T14:15:57.341Z,101876.09
2022-11-29T14:18:42.099Z,101875.91
2022-11-29T14:21:08.439Z,101889.88
2022-11-29T14:23:36.492Z,101882.09
2022-11-29T14:26:02.873Z,101890.66
2022-11-29T14:28:31.933Z,101891.47
2022-11-29T14:31:01.575Z,101887.19
2022-11-29T14:33:40.402Z,101893.34
2022-11-29T14:36:18.954Z,101898.41
2022-11-29T14:39:03.994Z,101895.88
2022-11-29T14:41:53.284Z,101897.50
2022-11-29T14:44:33.060Z,101907.88
2022-11-29T14:47:04.268Z,101911.44
2022-11-29T14:49:31.804Z,101900.03
2022-11-29T14:52:17.510Z,101915.56
2022-11-29T14:54:58.566Z,101914.75
2022-11-29T14:57:43.820Z,101911.09
2022-11-29T15:00:11.843Z,101908.50
2022-11-29T15:02:44.557Z,101910.19
2022-11-29T15:05:24.232Z,101923.13
2022-11-29T15:07:52.738Z,101922.41
2022-11-29T15:10:22.154Z,101927.81
2022-11-29T15:12:49.280Z,101923.41
2022-11-29T15:15:27.977Z,101920.75
2022-11-29T15:18:03.455Z,101927.50
2022-11-29T15:20:39.197Z,101928.25
2022-11-29T15:23:08.310Z,101923.81
2022-11-29T15:25:34.685Z,101929.03
2022-11-29T15:28:02.222Z,101924.66
2022-11-29T15:30:30.526Z,101922.34
2022-11-29T15:32:58.289Z,101924.28
2022-11-29T15:35:24.817Z,101916.53
2022-11-29T15:37:51.890Z,101912.50
2022-11-29T15:40:31.223Z,101917.06
2022-11-29T15:43:09.558Z,101919.59
2022-11-29T15:45:37.703Z,101919.94
2022-11-29T15:48:16.285Z,101918.91
2022-11-29T15:51:01.010Z,101923.25
2022-11-29T15:53:31.678Z,101928.50
2022-11-29T15:56:00.706Z,101930.13
2022-11-29T15:58:29.116Z,101927.59
2022-11-29T16:00:58.303Z,101931.03
2022-11-29T16:03:31.890Z,101930.34
2022-11-29T16:06:15.087Z,101944.25
2022-11-29T16:08:42.067Z,101935.66
2022-11-29T16:11:12.963Z,101940.03
2022-11-29T16:13:40.260Z,101947.66
2022-11-29T16:16:11.942Z,101949.22
2022-11-29T16:18:40.970Z,101965.66
2022-11-29T16:21:07.936Z,101965.75
2022-11-29T16:23:38.376Z,101968.38
2022-11-29T16:26:12.166Z,101968.56
2022-11-29T16:28:49.137Z,101976.28
2022-11-29T16:31:19.205Z,101972.75
2022-11-29T16:33:47.440Z,101977.22
2022-11-29T16:36:19.172Z,101983.16
2022-11-29T16:38:46.902Z,101980.47
2022-11-29T16:41:21.303Z,101988.38
2022-11-29T16:43:53.519Z,101984.31
2022-11-29T16:46:19.802Z,101980.06
2022-11-29T16:48:46.150Z,101986.06
2022-11-29T16:51:16.117Z,101984.31
2022-11-29T16:53:44.143Z,101988.38
2022-11-29T16:56:15.045Z,101991.91
2022-11-29T16:59:25.255Z,101995.47
2022-11-29T17:01:31.879Z,101999.00
2022-11-29T17:03:59.870Z,102003.31
2022-11-29T17:06:27.563Z,102001.38
2022-11-29T17:08:55.341Z,102001.47
2022-11-29T17:11:21.639Z,102000.50
2022-11-29T17:13:48.448Z,101998.84
2022-11-29T17:16:15.569Z,102003.28
2022-11-29T17:18:43.235Z,102001.59
2022-11-29T17:21:22.909Z,102005.88
2022-11-29T17:23:49.516Z,102011.94
2022-11-29T17:26:15.874Z,102010.44
2022-11-29T17:28:43.354Z,102011.31
2022-11-29T17:31:13.796Z,102017.59
2022-11-29T17:33:40.207Z,102017.72
2022-11-29T17:36:07.093Z,102021.00
2022-11-29T17:38:33.624Z,102021.69
2022-11-29T17:40:59.878Z,102023.50
2022-11-29T17:43:26.165Z,102030.38
2022-11-29T17:45:52.558Z,102031.06
2022-11-29T17:48:38.691Z,102035.63
2022-11-29T17:51:13.527Z,102024.25
2022-11-29T17:53:52.212Z,102025.91
2022-11-29T17:56:22.601Z,102026.84
2022-11-29T17:58:55.844Z,102032.94
2022-11-29T18:01:23.738Z,102035.47
2022-11-29T18:03:54.015Z,102033.75
2022-11-29T18:06:21.247Z,102039.13
2022-11-29T18:08:48.899Z,102045.25
2022-11-29T18:11:16.783Z,102045.41
2022-11-29T18:13:43.160Z,102047.94
2022-11-29T18:16:11.241Z,102046.91
2022-11-29T18:18:37.955Z,102042.50
2022-11-29T18:23:50.645Z,102050.28
2022-11-29T18:26:18.750Z,102055.44
2022-11-29T18:28:45.414Z,102056.31
2022-11-29T18:31:12.311Z,102060.84
2022-11-29T18:33:39.425Z,102066.75
2022-11-29T18:36:08.603Z,102071.16
2022-11-29T18:38:34.858Z,102071.06
2022-11-29T18:41:06.108Z,102079.81
2022-11-29T18:43:32.349Z,102075.31
2022-11-29T18:45:58.689Z,102075.31
2022-11-29T18:48:25.014Z,102077.13
2022-11-29T18:50:51.254Z,102084.00
2022-11-29T18:53:17.556Z,102081.31
2022-11-29T18:55:43.848Z,102088.28
2022-11-29T18:58:10.143Z,102083.13
2022-11-29T19:00:36.480Z,102084.69
2022-11-29T19:03:02.751Z,102079.53
2022-11-29T19:05:29.043Z,102076.91
2022-11-29T19:07:55.421Z,102083.94
2022-11-29T19:10:21.734Z,102085.59
2022-11-29T19:12:47.992Z,102086.53
2022-11-29T19:15:14.294Z,102085.66
2022-11-29T19:17:43.372Z,102088.22
2022-11-29T19:20:10.386Z,102090.00
2022-11-29T19:22:36.622Z,102089.16
2022-11-29T19:25:02.961Z,102089.16
2022-11-29T19:27:29.200Z,102088.34
2022-11-29T19:29:55.440Z,102085.66
2022-11-29T19:32:21.677Z,102089.16
2022-11-29T19:34:47.936Z,102090.00
2022-11-29T19:37:14.205Z,102095.22
2022-11-29T19:39:40.451Z,102095.97
2022-11-29T19:42:06.692Z,102090.75
2022-11-29T19:44:48.317Z,102095.91
2022-11-29T19:47:19.180Z,102095.03
2022-11-29T19:49:46.847Z,102091.56
2022-11-29T19:52:13.304Z,102096.66
2022-11-29T19:54:39.549Z,102100.25
2022-11-29T19:57:05.796Z,102098.44
2022-11-29T19:59:33.308Z,102098.31
2022-11-29T20:01:59.810Z,102094.94
2022-11-29T20:04:26.064Z,102100.09
2022-11-29T20:06:54.431Z,102100.97
2022-11-29T20:09:22.374Z,102104.66
2022-11-29T20:11:48.644Z,102108.03
2022-11-29T20:14:15.346Z,102107.13
2022-11-29T20:16:41.664Z,102109.66
2022-11-29T20:19:09.707Z,102111.44
2022-11-29T20:21:38.070Z,102116.75
2022-11-29T20:24:05.920Z,102114.13
2022-11-29T20:26:34.159Z,102115.03
2022-11-29T20:29:02.099Z,102110.66
2022-11-29T20:31:29.479Z,102116.75
2022-11-29T20:33:57.335Z,102122.06
2022-11-29T20:36:38.873Z,102121.19
2022-11-29T20:39:08.207Z,102120.34
2022-11-29T20:41:41.153Z,102121.03
2022-11-29T20:44:10.586Z,102120.19
2022-11-29T20:46:37.229Z,102122.66
2022-11-29T20:49:06.656Z,102117.44
2022-11-29T20:51:42.681Z,102125.44
2022-11-29T20:54:10.478Z,102123.63
2022-11-29T20:56:36.729Z,102123.56
2022-11-29T20:59:02.970Z,102117.50
2022-11-29T21:01:29.249Z,102125.44
2022-11-29T21:03:55.564Z,102128.94
2022-11-29T21:06:21.881Z,102119.28
2022-11-29T21:08:48.841Z,102121.84
2022-11-29T21:11:15.310Z,102133.13
2022-11-29T21:13:41.651Z,102133.13
2022-11-29T21:16:09.761Z,102117.44
2022-11-29T21:18:36.188Z,102119.25
2022-11-29T21:21:22.724Z,102123.50
2022-11-29T21:24:05.172Z,102123.63
2022-11-29T21:26:40.056Z,102120.13
2022-11-29T21:29:19.049Z,102125.19
2022-11-29T21:31:46.129Z,102122.59
2022-11-29T21:34:12.423Z,102122.66
2022-11-29T21:36:38.918Z,102128.78
2022-11-29T21:39:10.673Z,102127.13
2022-11-29T21:41:36.925Z,102134.19
2022-11-29T21:44:07.738Z,102135.81
2022-11-29T21:46:34.625Z,102135.81
2022-11-29T21:49:00.940Z,102137.47
2022-11-29T21:51:32.416Z,102134.78
2022-11-29T21:53:58.676Z,102140.75
2022-11-29T21:56:24.951Z,102136.34
2022-11-29T21:58:51.223Z,102141.56
2022-11-29T22:01:18.743Z,102138.91
2022-11-29T22:03:45.471Z,102133.59
2022-11-29T22:06:13.314Z,102137.91
2022-11-29T22:08:40.462Z,102139.69
2022-11-29T22:11:08.215Z,102136.97
2022-11-29T22:13:34.958Z,102141.38
2022-11-29T22:16:08.019Z,102143.16
2022-11-29T22:18:34.544Z,102141.38
2022-11-29T22:21:01.513Z,102139.56
2022-11-29T22:23:27.769Z,102144.84
2022-11-29T22:25:54.016Z,102142.19
2022-11-29T22:28:20.252Z,102155.28
2022-11-29T22:30:46.491Z,102153.44
2022-11-29T22:33:13.553Z,102155.28
2022-11-29T22:35:43.467Z,102150.84
2022-11-29T22:38:09.739Z,102159.75
2022-11-29T22:40:35.986Z,102154.44
2022-11-29T22:43:02.220Z,102153.59
2022-11-29T22:45:28.469Z,102149.28
2022-11-29T22:47:54.737Z,102148.47
2022-11-29T22:50:21.019Z,102148.47
2022-11-29T22:52:47.259Z,102146.78
2022-11-29T22:55:13.551Z,102146.66
2022-11-29T22:57:39.893Z,102151.00
2022-11-29T23:00:06.515Z,102148.38
2022-11-29T23:02:32.799Z,102151.91
2022-11-29T23:04:59.103Z,102165.78
2022-11-29T23:07:25.732Z,102154.59
2022-11-29T23:09:52.036Z,102161.53
2022-11-29T23:12:18.340Z,102164.22
2022-11-29T23:14:44.972Z,102168.53
2022-11-29T23:17:11.460Z,102161.44
2022-11-29T23:19:37.732Z,102158.00
2022-11-29T23:22:03.991Z,102156.31
2022-11-29T23:24:30.257Z,102163.16
2022-11-29T23:26:56.532Z,102170.22
2022-11-29T23:29:22.810Z,102164.97
2022-11-29T23:31:49.331Z,102171.00
2022-11-29T23:34:15.756Z,102174.59
2022-11-29T23:36:42.107Z,102172.75
2022-11-29T23:39:08.472Z,102177.13
2022-11-29T23:41:35.669Z,102177.06
2022-11-29T23:44:05.758Z,102176.22
2022-11-29T23:46:32.354Z,102178.13
2022-11-29T23:48:58.631Z,102172.81
2022-11-29T23:51:24.879Z,102175.50
2022-11-29T23:53:54.173Z,102175.56
2022-11-29T23:56:21.223Z,102171.25
2022-11-29T23:58:47.761Z,102171.91
